Stockton Metropolitan Airport
KSCK : now visible

Airfield :











YOU CAN JOIN US ON...

 
LOGIN :

Register | Disclaimer

   EN    FR    IT 

 









Legend :    VFR   Marginal VFR   IFR   Intensive IFR   Very Intensive IFR
Visi :
Ceiling :
>= 8 km
>= 3000ft
5 to 8 km
1000 to 3000 ft
1500m to 5 km
500 to 1000 ft
800 to 1500m
200 to 500 ft
< 800m
< 200 ft
Symbols :   Thunderstorms  Fog  Heavy snow  Heavy precipitations  Wind > 20 kt






- Airport Elevation : 33 ft


KSCK - Stockton Metropolitan

CURRENT METAR :
  • 220155Z 03003KT 10SM OVC055 14/10 A3012 RMK AO2 SLP197 T01390100

EXPIRED METARs :
  • 220055Z 10003KT 10SM OVC060 15/09 A3010 RMK AO2 SLP194 T01500094
  • 212355Z 15005KT 10SM BKN065 OVC080 16/09 A3010 RMK AO2 RAB2258E52 SLP192 P0000 60000 T01560094 10167 20111 55002

TAF KSCK
Valid from the 22 at 00:00 until the 23 at 00:00 UTC


212328Z 2200/2224 15006KT P6SM VCSH BKN060 OVC080
FM220400 15006KT P6SM OVC050
FM220800 13004KT 4SM BR OVC025
FM221200 VRB03KT 2SM BR FEW004 OVC015
FM221900 32005KT 4SM HZ OVC015
FM222100 32006KT P6SM SCT025



MET'MAP, your aeronautical weather chart ! - Copyright ORBIFLY December 2007 - Disclaimer

ORBIFLY MET'MAP TEAM :

Programming & Development : Alexandra Zaïnal
Concept & original design : Baudouin d'Aumeries
Assistance for programming : Marc-Olivier Méhu
Technical & hardware support : Manuel Goepfert

Contact : metmap@orbifly.com




SOURCES & CREDITS :

   NOAA       Earth
Advisory